Time;durP1;ratioP1;P1;durP2;ratioP2;P2;SDS_P1;SDS_P2;PMS_P1;PMS_P2;Temp;Humidity;BMP_temperature;BMP_pressure;BME280_temperature;BME280_humidity;BME280_pressure;Samples;Min_cycle;Max_cycle;Signal;HPM_P1;HPM_P2
2022/05/03 00:00:06;;;;;;;2.72;1.77;;;;;;;;;;4986334;28;20038;-79
2022/05/03 00:02:38;;;;;;;1.85;1.60;;;;;;;;;;4971839;28;20403;-79
2022/05/03 00:05:12;;;;;;;5.32;2.10;;;11.50;82.30;;;;;;4972584;28;20043;-80
2022/05/03 00:07:56;;;;;;;2.42;1.40;;;;;;;;;;4988173;28;20026;-79
2022/05/03 00:10:29;;;;;;;3.00;2.05;;;;;;;;;;4973001;28;20027;-79
2022/05/03 00:13:06;;;;;;;3.05;1.70;;;;;;;;;;4974976;28;20053;-78
2022/05/03 00:15:35;;;;;;;1.85;1.40;;;;;;;;;;4974780;28;20038;-79
2022/05/03 00:18:02;;;;;;;5.18;2.10;;;;;;;;;;4971885;28;20047;-79
2022/05/03 00:20:28;;;;;;;1.88;1.65;;;;;;;;;;4971269;28;20038;-79
2022/05/03 00:22:55;;;;;;;3.35;2.38;;;12.30;80.60;;;;;;4973422;28;20724;-79
2022/05/03 00:25:21;;;;;;;3.97;2.40;;;;;;;;;;4977200;28;20038;-79
2022/05/03 00:27:47;;;;;;;1.90;1.42;;;;;;;;;;4975004;28;20114;-79
2022/05/03 00:30:13;;;;;;;4.40;2.47;;;;;;;;;;4975838;28;20478;-79
2022/05/03 00:32:40;;;;;;;3.22;2.53;;;12.10;80.50;;;;;;4974521;28;20032;-79
2022/05/03 00:35:07;;;;;;;10.70;2.53;;;;;;;;;;4986581;28;20026;-79
2022/05/03 00:37:33;;;;;;;4.60;2.65;;;;;;;;;;4985518;28;20324;-79
2022/05/03 00:39:59;;;;;;;4.50;2.05;;;;;;;;;;4983564;28;20046;-79
2022/05/03 00:42:53;;;;;;;3.70;2.10;;;11.80;82.10;;;;;;4981839;28;20045;-79
2022/05/03 00:45:19;;;;;;;4.13;1.58;;;;;;;;;;4974650;28;20022;-80
2022/05/03 00:47:52;;;;;;;4.22;2.15;;;;;;;;;;4974628;28;20037;-79
2022/05/03 00:50:28;;;;;;;3.85;1.88;;;11.60;83.50;;;;;;4980965;28;20492;-80
2022/05/03 00:53:16;;;;;;;3.47;1.65;;;11.70;83.50;;;;;;4988758;28;20487;-80
2022/05/03 00:55:48;;;;;;;2.10;1.60;;;;;;;;;;4977974;28;20560;-79
2022/05/03 00:58:23;;;;;;;2.33;2.00;;;;;;;;;;4978265;28;20042;-79
2022/05/03 01:01:23;;;;;;;4.63;1.98;;;11.90;82.20;;;;;;4978113;28;20035;-78
2022/05/03 01:04:08;;;;;;;2.92;2.58;;;;;;;;;;4975745;28;20046;-79
2022/05/03 01:07:13;;;;;;;2.58;2.22;;;;;;;;;;4982635;28;20030;-79
2022/05/03 01:09:44;;;;;;;2.53;2.03;;;;;;;;;;4987717;28;20034;-79
2022/05/03 01:12:44;;;;;;;4.25;2.13;;;11.80;84.20;;;;;;4986333;28;20515;-79
2022/05/03 01:15:11;;;;;;;1.70;1.40;;;;;;;;;;4985626;28;20035;-79
2022/05/03 01:18:02;;;;;;;2.53;2.17;;;12.00;83.00;;;;;;4985853;28;20027;-79
2022/05/03 01:20:43;;;;;;;2.58;1.77;;;12.20;81.50;;;;;;4969640;28;20042;-80
2022/05/03 01:23:27;;;;;;;4.45;2.25;;;;;;;;;;4987772;28;20040;-79
2022/05/03 01:26:12;;;;;;;3.13;2.45;;;;;;;;;;4985540;28;20715;-80
2022/05/03 01:28:56;;;;;;;2.95;2.55;;;;;;;;;;4987728;28;20042;-79
2022/05/03 01:31:24;;;;;;;5.25;2.70;;;;;;;;;;4986887;28;20057;-79
2022/05/03 01:33:50;;;;;;;4.40;2.63;;;;;;;;;;4987691;28;20097;-78
2022/05/03 01:36:24;;;;;;;7.18;2.40;;;;;;;;;;4986948;28;20482;-80
2022/05/03 01:39:14;;;;;;;4.38;2.15;;;;;;;;;;4985529;28;20030;-79
2022/05/03 01:41:40;;;;;;;5.35;2.65;;;;;;;;;;4980641;28;20142;-79
2022/05/03 01:44:09;;;;;;;4.10;2.78;;;;;;;;;;4974120;28;20086;-79
2022/05/03 01:46:36;;;;;;;2.83;2.05;;;;;;;;;;4972314;28;20038;-80
2022/05/03 01:51:50;;;;;;;3.05;1.73;;;;;;;;;;4978593;28;20105;-80
2022/05/03 01:54:35;;;;;;;4.85;2.58;;;;;;;;;;4977034;28;20022;-80
2022/05/03 01:57:13;;;;;;;3.08;2.00;;;;;;;;;;4976531;28;20029;-79
2022/05/03 01:59:39;;;;;;;2.75;2.15;;;;;;;;;;4974032;28;20043;-79
2022/05/03 02:02:23;;;;;;;3.13;2.42;;;;;;;;;;4974649;28;20027;-79
2022/05/03 02:05:08;;;;;;;3.33;1.95;;;;;;;;;;4986908;28;20411;-79
2022/05/03 02:07:49;;;;;;;3.22;2.28;;;12.20;83.80;;;;;;4971957;28;20049;-79
2022/05/03 02:10:18;;;;;;;3.15;2.38;;;12.10;84.50;;;;;;4974457;28;20158;-79
2022/05/03 02:12:46;;;;;;;5.30;2.30;;;;;;;;;;4976802;28;20397;-80
2022/05/03 02:15:13;;;;;;;3.42;2.90;;;;;;;;;;4976692;28;20018;-80
2022/05/03 02:17:52;;;;;;;7.97;1.77;;;12.20;85.70;;;;;;4974400;28;20038;-79
2022/05/03 02:20:18;;;;;;;2.50;2.30;;;;;;;;;;4987328;28;20186;-80
2022/05/03 02:22:50;;;;;;;4.93;2.90;;;;;;;;;;4976139;28;20117;-79
2022/05/03 02:25:40;;;;;;;2.60;2.08;;;;;;;;;;4976589;28;20022;-80
2022/05/03 02:28:14;;;;;;;3.88;2.13;;;11.90;85.70;;;;;;4978009;28;20047;-79
2022/05/03 02:30:45;;;;;;;3.03;2.05;;;11.80;86.80;;;;;;4965591;28;20027;-79
2022/05/03 02:33:23;;;;;;;3.53;2.53;;;;;;;;;;4985140;28;20046;-80
2022/05/03 02:35:50;;;;;;;2.95;2.05;;;;;;;;;;4975213;28;20022;-79
2022/05/03 02:38:20;;;;;;;5.47;2.37;;;;;;;;;;4971361;28;20282;-79
2022/05/03 02:40:50;;;;;;;5.22;2.90;;;;;;;;;;4986376;28;20030;-79
2022/05/03 02:43:17;;;;;;;3.47;1.95;;;;;;;;;;4976280;28;20172;-79
2022/05/03 02:45:50;;;;;;;2.75;2.00;;;;;;;;;;4976021;28;20512;-79
2022/05/03 02:48:28;;;;;;;6.90;2.47;;;;;;;;;;4975344;28;20089;-79
2022/05/03 02:50:57;;;;;;;3.88;2.70;;;;;;;;;;4975472;28;20038;-79
2022/05/03 02:53:23;;;;;;;3.88;2.30;;;;;;;;;;4987052;28;20034;-79
2022/05/03 02:56:01;;;;;;;3.65;2.85;;;;;;;;;;4972862;28;20117;-80
2022/05/03 02:58:46;;;;;;;3.60;2.40;;;;;;;;;;4975625;28;20046;-80
2022/05/03 03:03:59;;;;;;;;;;;;;;;;;;4976297;28;20046;-79
2022/05/03 03:06:31;;;;;;;3.08;2.33;;;12.00;86.50;;;;;;4972928;28;19910;-79
2022/05/03 03:08:58;;;;;;;3.60;2.83;;;;;;;;;;4975526;28;20085;-80
2022/05/03 03:11:27;;;;;;;4.15;3.00;;;;;;;;;;4970518;28;20026;-79
2022/05/03 03:14:24;;;;;;;5.10;2.65;;;11.90;87.80;;;;;;4986459;28;20041;-79
2022/05/03 03:16:50;;;;;;;;;;;;;;;;;;4986516;28;20041;-79
2022/05/03 03:19:19;;;;;;;4.03;2.63;;;;;;;;;;4973625;28;20303;-79
2022/05/03 03:21:48;;;;;;;4.03;2.75;;;;;;;;;;4976866;28;20027;-79
2022/05/03 03:24:15;;;;;;;3.80;2.60;;;12.40;86.70;;;;;;4980996;28;20037;-79
2022/05/03 03:26:42;;;;;;;8.00;3.30;;;;;;;;;;4974794;28;20030;-79
2022/05/03 03:29:09;;;;;;;5.83;2.97;;;;;;;;;;4973004;28;20039;-79
2022/05/03 03:31:36;;;;;;;4.90;3.13;;;;;;;;;;4970792;28;20259;-79
2022/05/03 03:34:05;;;;;;;3.15;2.45;;;12.50;85.20;;;;;;4975825;28;20106;-79
2022/05/03 03:36:33;;;;;;;3.53;2.92;;;12.60;85.30;;;;;;4973225;28;20035;-78
2022/05/03 03:38:59;;;;;;;6.00;3.72;;;;;;;;;;4974939;28;20114;-79
2022/05/03 03:41:25;;;;;;;8.68;2.75;;;;;;;;;;4984052;28;20511;-79
2022/05/03 03:43:53;;;;;;;7.35;3.40;;;;;;;;;;4974597;28;20118;-79
2022/05/03 03:46:18;;;;;;;4.18;2.97;;;;;;;;;;4975432;28;20030;-79
2022/05/03 03:48:45;;;;;;;5.30;2.88;;;;;;;;;;4971902;28;20041;-79
2022/05/03 03:51:14;;;;;;;4.43;2.58;;;;;;;;;;4975108;28;20034;-80
2022/05/03 03:53:40;;;;;;;3.88;2.42;;;;;;;;;;4973110;28;20484;-78
2022/05/03 03:56:06;;;;;;;4.88;2.85;;;;;;;;;;4972796;28;20507;-79
2022/05/03 03:58:33;;;;;;;4.97;3.25;;;;;;;;;;4972817;28;20034;-79
2022/05/03 04:00:59;;;;;;;5.15;2.67;;;;;;;;;;4983607;28;20045;-79
2022/05/03 04:03:26;;;;;;;5.80;3.35;;;;;;;;;;4987905;28;20100;-79
2022/05/03 04:05:52;;;;;;;5.20;2.65;;;;;;;;;;4987484;28;20388;-79
2022/05/03 04:08:18;;;;;;;5.20;2.55;;;;;;;;;;4971031;28;20034;-79
2022/05/03 04:10:45;;;;;;;7.50;2.70;;;;;;;;;;4974247;28;20504;-79
2022/05/03 04:13:13;;;;;;;5.15;3.05;;;12.40;87.00;;;;;;4974841;28;20038;-79
2022/05/03 04:15:40;;;;;;;6.15;3.10;;;;;;;;;;4975119;28;20092;-78
2022/05/03 04:18:07;;;;;;;5.68;3.05;;;;;;;;;;4974891;28;20026;-79
2022/05/03 04:20:33;;;;;;;;;;;;;;;;;;4973769;28;20034;-79
2022/05/03 04:22:59;;;;;;;3.95;2.05;;;;;;;;;;4973057;28;20827;-80
2022/05/03 04:25:25;;;;;;;3.75;2.67;;;;;;;;;;4976919;28;20062;-78
2022/05/03 04:27:51;;;;;;;5.07;2.63;;;;;;;;;;4978553;28;20595;-79
2022/05/03 04:30:17;;;;;;;2.80;2.53;;;;;;;;;;4979052;28;20023;-82
2022/05/03 04:32:43;;;;;;;6.28;3.88;;;;;;;;;;4975451;28;20546;-80
2022/05/03 04:35:09;;;;;;;4.82;3.00;;;;;;;;;;4974467;28;20108;-80
2022/05/03 04:37:36;;;;;;;3.83;2.50;;;;;;;;;;4977962;28;20034;-79
2022/05/03 04:40:02;;;;;;;9.40;3.45;;;;;;;;;;4985732;28;20045;-81
2022/05/03 04:42:27;;;;;;;5.47;3.35;;;;;;;;;;4982138;28;20500;-79
2022/05/03 04:44:53;;;;;;;8.05;3.20;;;;;;;;;;4978386;28;20034;-79
2022/05/03 04:47:19;;;;;;;5.70;3.78;;;;;;;;;;4974906;28;20054;-79
2022/05/03 04:49:47;;;;;;;6.13;3.13;;;;;;;;;;4973963;28;20027;-79
2022/05/03 04:52:13;;;;;;;5.15;2.67;;;;;;;;;;4975422;28;20437;-79
2022/05/03 04:54:39;;;;;;;4.03;3.58;;;;;;;;;;4993224;28;20471;-78
2022/05/03 04:57:06;;;;;;;3.83;2.50;;;12.70;86.10;;;;;;4978363;28;20026;-80
2022/05/03 04:59:32;;;;;;;5.47;2.83;;;;;;;;;;4974952;28;20507;-79
2022/05/03 05:01:58;;;;;;;6.22;2.78;;;;;;;;;;4986285;28;20360;-80
2022/05/03 05:04:24;;;;;;;4.38;2.30;;;;;;;;;;4975062;28;20504;-79
2022/05/03 05:06:51;;;;;;;7.40;2.70;;;;;;;;;;4976035;28;20070;-79
2022/05/03 05:09:17;;;;;;;4.85;2.50;;;;;;;;;;4978110;28;20034;-80
2022/05/03 05:11:43;;;;;;;5.22;2.95;;;;;;;;;;4976572;28;20027;-79
2022/05/03 05:14:09;;;;;;;5.38;3.22;;;;;;;;;;4986815;28;20041;-80
2022/05/03 05:16:35;;;;;;;4.78;2.72;;;;;;;;;;4977360;28;20377;-79
2022/05/03 05:19:01;;;;;;;5.18;3.60;;;;;;;;;;4977681;28;20039;-79
2022/05/03 05:21:27;;;;;;;3.55;3.25;;;;;;;;;;4979170;28;20039;-79
2022/05/03 05:23:53;;;;;;;4.53;2.95;;;;;;;;;;4977673;28;20022;-79
2022/05/03 05:26:19;;;;;;;3.88;2.38;;;;;;;;;;4974619;28;20026;-81
2022/05/03 05:28:45;;;;;;;6.18;3.50;;;;;;;;;;4985268;28;20038;-81
2022/05/03 05:31:11;;;;;;;5.00;2.42;;;;;;;;;;4987350;28;20041;-80
2022/05/03 05:33:37;;;;;;;5.47;3.00;;;;;;;;;;4986393;28;20041;-80
2022/05/03 05:36:03;;;;;;;8.00;3.28;;;;;;;;;;4981898;28;20137;-80
2022/05/03 05:38:29;;;;;;;5.22;2.78;;;;;;;;;;4987258;28;20085;-80
2022/05/03 05:40:55;;;;;;;3.28;2.75;;;;;;;;;;4987825;28;20037;-81
2022/05/03 05:43:21;;;;;;;5.10;3.13;;;;;;;;;;4987962;28;20423;-80
2022/05/03 05:45:48;;;;;;;5.88;3.67;;;;;;;;;;4984986;28;20442;-80
2022/05/03 05:48:15;;;;;;;6.10;3.42;;;;;;;;;;4985360;28;20110;-80
2022/05/03 05:50:41;;;;;;;11.88;3.85;;;;;;;;;;4990198;28;20118;-79
2022/05/03 05:55:52;;;;;;;5.82;2.97;;;;;;;;;;4982289;28;20045;-79
2022/05/03 05:58:19;;;;;;;6.15;3.45;;;;;;;;;;4975914;28;20038;-79
2022/05/03 06:00:45;;;;;;;8.40;3.75;;;;;;;;;;4976133;28;20062;-79
2022/05/03 06:03:11;;;;;;;6.97;2.97;;;;;;;;;;4976594;28;20057;-79
2022/05/03 06:05:37;;;;;;;8.07;3.05;;;;;;;;;;4973638;28;20023;-79
2022/05/03 06:08:03;;;;;;;6.22;3.97;;;;;;;;;;4973539;28;20084;-80
2022/05/03 06:10:29;;;;;;;5.72;3.33;;;;;;;;;;4975711;28;20061;-80
2022/05/03 06:12:57;;;;;;;6.57;3.20;;;;;;;;;;4983220;28;20026;-80
2022/05/03 06:15:23;;;;;;;6.35;2.97;;;;;;;;;;4983521;28;20035;-78
2022/05/03 06:17:49;;;;;;;4.10;2.60;;;;;;;;;;4976190;28;20026;-79
2022/05/03 06:20:14;;;;;;;3.83;2.85;;;;;;;;;;4972360;28;20042;-78
2022/05/03 06:22:41;;;;;;;7.07;3.38;;;;;;;;;;4987995;28;20199;-78
2022/05/03 06:25:10;;;;;;;7.93;3.80;;;;;;;;;;4984691;28;20034;-77
2022/05/03 06:27:38;;;;;;;5.13;2.80;;;;;;;;;;4983235;28;20026;-79
2022/05/03 06:30:05;;;;;;;5.10;3.13;;;14.30;83.70;;;;;;4993654;28;20023;-80
2022/05/03 06:32:31;;;;;;;;;;;;;;;;;;4989014;28;20030;-80
2022/05/03 06:34:57;;;;;;;5.13;3.53;;;;;;;;;;4989935;28;19992;-80
2022/05/03 06:37:23;;;;;;;5.15;2.80;;;;;;;;;;4978667;28;20058;-80
2022/05/03 06:39:49;;;;;;;4.30;3.25;;;;;;;;;;4984314;28;20744;-81
2022/05/03 06:42:16;;;;;;;5.07;3.10;;;;;;;;;;4984073;28;20086;-80
2022/05/03 06:44:42;;;;;;;8.20;3.07;;;;;;;;;;4988252;28;20050;-80
2022/05/03 06:47:08;;;;;;;5.60;3.53;;;;;;;;;;4988133;28;20028;-80
2022/05/03 06:49:34;;;;;;;3.13;2.33;;;;;;;;;;4986536;28;20569;-80
2022/05/03 06:52:02;;;;;;;;;;;;;;;;;;4984649;28;20109;-80
2022/05/03 06:54:28;;;;;;;7.55;3.75;;;;;;;;;;4988554;28;19972;-80
2022/05/03 06:56:54;;;;;;;3.45;2.50;;;;;;;;;;4984895;28;20058;-80
2022/05/03 06:59:20;;;;;;;4.25;3.05;;;;;;;;;;4975786;28;20423;-80
2022/05/03 07:01:46;;;;;;;5.63;2.88;;;;;;;;;;4984674;28;20018;-78
2022/05/03 07:04:12;;;;;;;11.65;4.15;;;;;;;;;;4979422;28;20030;-79
2022/05/03 07:06:38;;;;;;;5.70;3.28;;;;;;;;;;4982951;28;20035;-81
2022/05/03 07:09:04;;;;;;;7.47;3.50;;;;;;;;;;4977214;28;20076;-79
2022/05/03 07:11:31;;;;;;;12.43;4.07;;;;;;;;;;4973252;28;20081;-79
2022/05/03 07:13:57;;;;;;;7.70;3.58;;;;;;;;;;4973586;28;20031;-80
2022/05/03 07:16:23;;;;;;;6.32;3.78;;;;;;;;;;4997321;28;20112;-79
2022/05/03 07:24:19;;;;;;;5.47;2.72;;;;;;;;;;4988281;28;20045;-80
2022/05/03 07:26:45;;;;;;;5.25;3.17;;;;;;;;;;4987557;28;20030;-79
2022/05/03 07:29:11;;;;;;;8.00;3.03;;;;;;;;;;4987804;28;20034;-79
2022/05/03 07:31:41;;;;;;;4.75;2.38;;;;;;;;;;4987959;28;20065;-79
2022/05/03 07:34:07;;;;;;;7.80;2.67;;;;;;;;;;4987451;28;20116;-78
2022/05/03 07:36:33;;;;;;;12.05;3.45;;;;;;;;;;4987639;28;20030;-78
2022/05/03 07:38:59;;;;;;;4.40;2.42;;;;;;;;;;4985912;28;20053;-78
2022/05/03 07:41:25;;;;;;;3.67;2.38;;;;;;;;;;4987423;28;20051;-78
2022/05/03 07:43:51;;;;;;;4.63;3.33;;;;;;;;;;4985429;28;20031;-79
2022/05/03 07:46:18;;;;;;;8.15;3.55;;;;;;;;;;4986513;28;20030;-84
2022/05/03 07:48:44;;;;;;;8.80;3.13;;;;;;;;;;4986546;28;20041;-81
2022/05/03 07:51:12;;;;;;;6.35;2.72;;;20.90;57.10;;;;;;4983946;28;20113;-81
2022/05/03 07:53:39;;;;;;;3.47;2.33;;;;;;;;;;4985605;28;20030;-81
2022/05/03 07:56:05;;;;;;;7.07;2.95;;;;;;;;;;4987858;28;20034;-80
2022/05/03 07:58:31;;;;;;;5.50;2.58;;;;;;;;;;4986345;28;20041;-80
2022/05/03 08:00:57;;;;;;;5.82;2.97;;;;;;;;;;4984294;28;20034;-80
2022/05/03 08:03:23;;;;;;;3.25;2.13;;;;;;;;;;4988975;28;20510;-80
2022/05/03 08:05:50;;;;;;;9.30;3.33;;;;;;;;;;4988721;28;20034;-80
2022/05/03 08:08:16;;;;;;;4.32;2.75;;;;;;;;;;4985982;28;20043;-80
2022/05/03 08:10:45;;;;;;;6.90;2.97;;;;;;;;;;4984188;28;20030;-81
2022/05/03 08:13:11;;;;;;;3.55;2.20;;;;;;;;;;4986083;28;20030;-82
2022/05/03 08:15:37;;;;;;;5.85;3.28;;;;;;;;;;4983895;28;20472;-80
2022/05/03 08:18:03;;;;;;;5.25;2.20;;;;;;;;;;4984586;28;20751;-80
2022/05/03 08:20:29;;;;;;;8.43;3.50;;;;;;;;;;4986421;28;20050;-81
2022/05/03 08:22:55;;;;;;;4.18;2.92;;;;;;;;;;4988461;28;20080;-81
2022/05/03 08:25:22;;;;;;;4.30;3.22;;;;;;;;;;4975358;28;20034;-80
2022/05/03 08:27:48;;;;;;;9.45;3.47;;;;;;;;;;4978124;28;20035;-80
2022/05/03 08:30:14;;;;;;;5.00;3.03;;;;;;;;;;4982726;28;20487;-80
2022/05/03 08:32:40;;;;;;;7.35;3.25;;;;;;;;;;4984841;28;20018;-80
2022/05/03 08:35:06;;;;;;;6.38;4.15;;;;;;;;;;4999928;28;20081;-80
2022/05/03 08:43:08;;;;;;;9.05;3.40;;;;;;;;;;4978328;28;20058;-81
2022/05/03 08:45:34;;;;;;;6.80;3.22;;;;;;;;;;4981765;28;20030;-81
2022/05/03 08:48:01;;;;;;;5.43;3.25;;;22.20;57.50;;;;;;4992196;28;20073;-81
2022/05/03 08:50:29;;;;;;;4.33;2.90;;;;;;;;;;4985198;28;20026;-81
2022/05/03 08:52:59;;;;;;;6.18;2.90;;;23.90;52.10;;;;;;4986402;28;20026;-81
2022/05/03 08:55:25;;;;;;;5.00;3.28;;;;;;;;;;4974812;28;20034;-80
2022/05/03 08:57:51;;;;;;;4.85;2.70;;;;;;;;;;4975939;28;20084;-80
2022/05/03 09:00:18;;;;;;;6.10;3.47;;;;;;;;;;4975511;28;20503;-81
2022/05/03 09:02:53;;;;;;;6.03;3.55;;;23.90;51.90;;;;;;4984532;28;20110;-80
2022/05/03 09:05:19;;;;;;;4.55;2.92;;;;;;;;;;4986490;28;20527;-80
2022/05/03 09:07:51;;;;;;;6.65;3.60;;;24.90;48.40;;;;;;4973680;28;20405;-80
2022/05/03 09:10:18;;;;;;;11.75;4.88;;;23.70;48.80;;;;;;4978644;28;20057;-80
2022/05/03 09:12:44;;;;;;;7.43;3.45;;;;;;;;;;4982474;28;20038;-80
2022/05/03 09:15:14;;;;;;;7.13;3.17;;;;;;;;;;4990737;28;20606;-81
2022/05/03 09:17:40;;;;;;;6.85;3.65;;;;;;;;;;4976382;28;20783;-80
2022/05/03 09:26:10;;;;;;;8.27;3.58;;;21.50;54.90;;;;;;4987095;28;20454;-79
2022/05/03 09:28:42;;;;;;;6.00;3.17;;;;;;;;;;4986514;28;20415;-80
2022/05/03 09:31:08;;;;;;;5.38;3.30;;;;;;;;;;4980713;28;20109;-80
2022/05/03 09:33:37;;;;;;;8.93;4.13;;;;;;;;;;4985542;28;20085;-80
2022/05/03 09:36:12;;;;;;;12.98;4.28;;;;;;;;;;4999445;28;20038;-80
2022/05/03 09:38:48;;;;;;;6.95;3.17;;;;;;;;;;4988991;28;20051;-80
2022/05/03 09:41:15;;;;;;;9.80;3.47;;;;;;;;;;4988227;28;20722;-80
2022/05/03 09:44:06;;;;;;;4.35;2.85;;;22.40;55.60;;;;;;4989130;28;20124;-80
2022/05/03 09:46:51;;;;;;;21.77;3.72;;;;;;;;;;4986716;28;20141;-80
2022/05/03 09:49:33;;;;;;;6.03;3.17;;;23.50;50.10;;;;;;4985131;28;20038;-80
2022/05/03 09:51:59;;;;;;;4.90;3.22;;;;;;;;;;5005980;28;20567;-81
2022/05/03 09:54:25;;;;;;;22.00;3.55;;;;;;;;;;4988690;28;20092;-80
2022/05/03 09:56:51;;;;;;;7.32;3.30;;;;;;;;;;4991666;28;20026;-80
2022/05/03 09:59:18;;;;;;;5.25;2.70;;;;;;;;;;4988375;28;20050;-80
2022/05/03 10:01:44;;;;;;;6.23;3.23;;;;;;;;;;4982502;28;20062;-81
2022/05/03 10:04:10;;;;;;;7.57;2.85;;;25.30;45.40;;;;;;4977893;28;20089;-80
2022/05/03 10:06:37;;;;;;;3.75;2.47;;;;;;;;;;4978169;28;20093;-80
2022/05/03 10:09:03;;;;;;;3.95;2.38;;;;;;;;;;4984059;28;20034;-80
2022/05/03 10:11:29;;;;;;;7.78;3.13;;;;;;;;;;4986497;28;20045;-80
2022/05/03 10:13:55;;;;;;;5.40;2.65;;;;;;;;;;4988549;28;20026;-80
2022/05/03 10:21:59;;;;;;;4.43;2.05;;;23.80;45.30;;;;;;4984455;28;20569;-80
2022/05/03 10:24:26;;;;;;;3.22;2.05;;;;;;;;;;4986644;28;20081;-80
2022/05/03 10:26:53;;;;;;;4.50;2.40;;;;;;;;;;4990639;28;20030;-80
2022/05/03 10:29:19;;;;;;;2.15;1.92;;;;;;;;;;4973149;28;20037;-79
2022/05/03 10:31:55;;;;;;;3.08;2.45;;;23.90;42.70;;;;;;4989689;28;20026;-80
2022/05/03 10:34:42;;;;;;;5.93;2.30;;;24.80;41.60;;;;;;4976910;28;20038;-80
2022/05/03 10:37:08;;;;;;;;;;;;;;;;;;4987646;28;20034;-81
2022/05/03 10:39:35;;;;;;;3.20;2.15;;;;;;;;;;4986154;28;20298;-80
2022/05/03 10:42:12;;;;;;;3.47;2.00;;;26.80;38.20;;;;;;4983389;28;20046;-80
2022/05/03 10:45:01;;;;;;;3.17;2.10;;;27.30;38.10;;;;;;4987323;28;20034;-81
2022/05/03 10:47:48;;;;;;;6.95;3.05;;;27.90;36.00;;;;;;4991179;28;20667;-80
2022/05/03 10:50:17;;;;;;;5.22;2.25;;;;;;;;;;4985171;28;20026;-80
2022/05/03 10:53:05;;;;;;;3.42;2.13;;;;;;;;;;4986016;28;20061;-79
2022/05/03 10:55:35;;;;;;;4.35;3.15;;;27.30;37.90;;;;;;4987401;28;20467;-79
2022/05/03 10:58:19;;;;;;;3.20;1.88;;;;;;;;;;4984010;28;20622;-79
2022/05/03 11:01:05;;;;;;;2.90;1.70;;;26.20;39.40;;;;;;4983427;28;20105;-79
2022/05/03 11:03:32;;;;;;;4.63;3.07;;;;;;;;;;4984791;28;20124;-80
2022/05/03 11:06:17;;;;;;;4.65;2.88;;;;;;;;;;4988835;28;20359;-79
2022/05/03 11:09:05;;;;;;;4.22;2.10;;;;;;;;;;4979943;28;20031;-80
2022/05/03 11:11:42;;;;;;;3.22;2.33;;;24.00;44.40;;;;;;4971945;28;20117;-80
2022/05/03 11:14:24;;;;;;;3.42;2.30;;;;;;;;;;4989716;28;20026;-80
2022/05/03 11:16:51;;;;;;;3.85;2.58;;;;;;;;;;4990765;28;20034;-80
2022/05/03 11:19:21;;;;;;;3.88;2.53;;;;;;;;;;4982208;28;20045;-80
2022/05/03 11:21:48;;;;;;;3.85;2.08;;;;;;;;;;4980060;28;20035;-79
2022/05/03 11:24:18;;;;;;;4.18;1.88;;;;;;;;;;4985910;28;20027;-79
2022/05/03 11:26:44;;;;;;;6.78;2.42;;;;;;;;;;4986240;28;20526;-79
2022/05/03 11:29:12;;;;;;;5.65;1.95;;;21.70;45.80;;;;;;4986463;28;20034;-80
2022/05/03 11:31:39;;;;;;;3.72;2.38;;;;;;;;;;4986041;28;20447;-79
2022/05/03 11:34:06;;;;;;;4.78;2.35;;;;;;;;;;4987779;28;20030;-79
2022/05/03 11:36:32;;;;;;;;;;;;;;;;;;4983849;28;20031;-79
2022/05/03 11:38:58;;;;;;;2.63;1.70;;;;;;;;;;4986504;28;19940;-79
2022/05/03 11:41:29;;;;;;;2.72;2.05;;;;;;;;;;4986041;28;20030;-79
2022/05/03 11:43:55;;;;;;;4.18;2.45;;;;;;;;;;4987286;28;20034;-79
2022/05/03 11:46:22;;;;;;;4.05;2.33;;;;;;;;;;4990714;28;20145;-79
2022/05/03 11:48:52;;;;;;;5.07;3.33;;;;;;;;;;4996025;28;20038;-79
2022/05/03 11:57:04;;;;;;;4.47;2.70;;;;;;;;;;4984181;28;20430;-80
2022/05/03 11:59:30;;;;;;;3.80;2.40;;;;;;;;;;4989792;28;20053;-80
2022/05/03 12:02:11;;;;;;;11.85;1.80;;;;;;;;;;4990467;28;20019;-78
2022/05/03 12:04:37;;;;;;;4.75;2.17;;;;;;;;;;4985501;28;20073;-79
2022/05/03 12:07:03;;;;;;;1.80;1.42;;;;;;;;;;4980043;28;20489;-79
2022/05/03 12:09:35;;;;;;;1.60;1.23;;;;;;;;;;4984156;28;20050;-79
2022/05/03 12:14:46;;;;;;;1.83;1.25;;;;;;;;;;4974519;28;20041;-78
2022/05/03 12:17:12;;;;;;;0.93;0.82;;;;;;;;;;4971839;28;20027;-80
2022/05/03 12:19:38;;;;;;;1.95;1.38;;;;;;;;;;4990264;28;20043;-79
2022/05/03 12:22:14;;;;;;;2.38;1.38;;;;;;;;;;4980752;28;20567;-78
2022/05/03 12:24:41;;;;;;;2.42;1.13;;;18.60;69.90;;;;;;4981993;28;20575;-79
2022/05/03 12:27:15;;;;;;;1.55;1.20;;;;;;;;;;4981006;28;20551;-79
2022/05/03 12:29:42;;;;;;;1.38;1.17;;;;;;;;;;4984845;28;20022;-79
2022/05/03 12:32:16;;;;;;;4.07;2.63;;;;;;;;;;4971931;28;20122;-80
2022/05/03 12:34:55;;;;;;;3.47;1.73;;;18.90;65.20;;;;;;4986852;28;20037;-79
2022/05/03 12:37:21;;;;;;;1.17;1.00;;;;;;;;;;4975761;28;20078;-79
2022/05/03 12:39:47;;;;;;;2.50;1.75;;;;;;;;;;4996133;28;20574;-79
2022/05/03 12:42:15;;;;;;;3.67;2.20;;;;;;;;;;4982797;28;20046;-79
2022/05/03 12:44:52;;;;;;;2.22;1.70;;;;;;;;;;4989564;28;20034;-79
2022/05/03 12:47:18;;;;;;;2.92;1.60;;;;;;;;;;4975375;28;20019;-78
2022/05/03 12:49:44;;;;;;;2.72;1.42;;;;;;;;;;4978759;28;20423;-79
2022/05/03 12:52:10;;;;;;;2.63;1.13;;;;;;;;;;4987130;28;20110;-81
2022/05/03 12:54:40;;;;;;;1.13;0.80;;;;;;;;;;4989246;28;20038;-79
2022/05/03 12:59:52;;;;;;;2.92;1.15;;;;;;;;;;4990761;28;20042;-80
2022/05/03 13:02:18;;;;;;;1.25;0.93;;;;;;;;;;4983506;28;20022;-79
2022/05/03 13:04:44;;;;;;;1.85;1.13;;;;;;;;;;4980065;28;20043;-79
2022/05/03 13:07:10;;;;;;;7.43;1.55;;;;;;;;;;4979093;28;20101;-79
2022/05/03 13:09:36;;;;;;;0.98;0.68;;;;;;;;;;4979723;28;20039;-77
2022/05/03 13:12:02;;;;;;;1.38;1.00;;;;;;;;;;4979612;28;20041;-79
2022/05/03 13:14:29;;;;;;;1.70;1.20;;;;;;;;;;4988353;28;20117;-78
2022/05/03 13:16:55;;;;;;;1.42;1.13;;;;;;;;;;4988969;28;20037;-78
2022/05/03 13:19:22;;;;;;;2.23;1.40;;;;;;;;;;4987977;28;20536;-78
2022/05/03 13:21:48;;;;;;;1.70;1.48;;;;;;;;;;4986207;28;20715;-79
2022/05/03 13:24:14;;;;;;;2.30;1.60;;;;;;;;;;4990936;28;20059;-80
2022/05/03 13:26:40;;;;;;;1.10;1.00;;;;;;;;;;5004287;28;20018;-78
2022/05/03 13:29:08;;;;;;;3.60;1.35;;;;;;;;;;4975197;28;20500;-79
2022/05/03 13:31:34;;;;;;;2.78;1.67;;;;;;;;;;4993775;28;20134;-79
2022/05/03 13:34:00;;;;;;;4.03;2.47;;;;;;;;;;4986028;28;20026;-79
2022/05/03 13:41:55;;;;;;;3.65;1.80;;;;;;;;;;4986816;28;20049;-79
2022/05/03 13:44:22;;;;;;;5.78;1.40;;;;;;;;;;4989017;28;20034;-79
2022/05/03 13:46:48;;;;;;;2.80;1.60;;;;;;;;;;4983087;28;20022;-79
2022/05/03 13:49:14;;;;;;;9.13;2.70;;;;;;;;;;4984748;28;20121;-79
2022/05/03 13:51:40;;;;;;;8.77;2.63;;;;;;;;;;4984772;28;20034;-79
2022/05/03 13:54:06;;;;;;;8.87;2.87;;;;;;;;;;4993371;28;20030;-79
2022/05/03 13:56:32;;;;;;;2.97;1.92;;;;;;;;;;4972431;28;20023;-79
2022/05/03 13:58:58;;;;;;;1.77;1.48;;;;;;;;;;4986565;28;20472;-80
2022/05/03 14:01:24;;;;;;;2.03;1.00;;;;;;;;;;4978961;28;20035;-80
2022/05/03 14:03:51;;;;;;;1.60;1.42;;;;;;;;;;4980509;28;20124;-80
2022/05/03 14:06:18;;;;;;;1.30;1.10;;;;;;;;;;4985490;28;20051;-80
2022/05/03 14:08:44;;;;;;;2.25;1.10;;;;;;;;;;4989608;28;20039;-78
2022/05/03 14:11:10;;;;;;;2.22;1.13;;;;;;;;;;4973478;28;20037;-79
2022/05/03 14:13:36;;;;;;;1.60;0.80;;;;;;;;;;4988729;28;20427;-78
2022/05/03 14:16:02;;;;;;;2.20;2.00;;;;;;;;;;4981627;28;20090;-78
2022/05/03 14:18:28;;;;;;;3.55;2.20;;;;;;;;;;4984087;28;20046;-80
2022/05/03 14:20:54;;;;;;;2.72;1.85;;;;;;;;;;4987868;28;20044;-78
2022/05/03 14:23:21;;;;;;;2.92;1.10;;;;;;;;;;4986992;28;20038;-77
2022/05/03 14:25:48;;;;;;;1.57;0.80;;;;;;;;;;4976161;28;20031;-78
2022/05/03 14:28:14;;;;;;;;;;;;;;;;;;4982838;28;20062;-78
2022/05/03 14:30:40;;;;;;;1.08;0.95;;;;;;;;;;4983627;28;19947;-78
2022/05/03 14:33:07;;;;;;;3.63;1.00;;;;;;;;;;4993148;28;20018;-77
2022/05/03 14:35:33;;;;;;;1.38;0.95;;;;;;;;;;4981784;28;20085;-80
2022/05/03 14:38:02;;;;;;;1.08;0.88;;;;;;;;;;4988368;28;20042;-80
2022/05/03 14:40:29;;;;;;;2.92;1.80;;;;;;;;;;5004601;28;20050;-77
2022/05/03 14:42:55;;;;;;;1.80;1.10;;;;;;;;;;4984623;28;20054;-78
2022/05/03 14:45:21;;;;;;;1.95;1.67;;;;;;;;;;4985344;28;20031;-80
2022/05/03 14:47:47;;;;;;;1.27;1.00;;;;;;;;;;4985112;28;20022;-79
2022/05/03 14:50:14;;;;;;;2.28;1.38;;;;;;;;;;4984806;28;20403;-79
2022/05/03 14:52:40;;;;;;;2.17;1.02;;;;;;;;;;4988592;28;20038;-78
2022/05/03 14:55:06;;;;;;;1.65;1.08;;;;;;;;;;4988280;28;20373;-79
2022/05/03 15:03:03;;;;;;;3.60;2.10;;;;;;;;;;4966704;28;20080;-78
2022/05/03 15:05:30;;;;;;;1.30;0.90;;;;;;;;;;4980360;28;20637;-79
2022/05/03 15:07:56;;;;;;;5.43;1.30;;;;;;;;;;4984988;28;20053;-79
2022/05/03 15:10:22;;;;;;;2.40;1.40;;;;;;;;;;4981733;28;20484;-78
2022/05/03 15:12:48;;;;;;;2.15;1.40;;;;;;;;;;4980456;28;20030;-79
2022/05/03 15:15:19;;;;;;;1.27;0.90;;;;;;;;;;4978361;28;20080;-77
2022/05/03 15:17:45;;;;;;;2.55;1.00;;;;;;;;;;4981956;28;20030;-77
2022/05/03 15:20:12;;;;;;;5.88;1.80;;;;;;;;;;4983164;28;20035;-78
2022/05/03 15:25:23;;;;;;;2.65;0.90;;;;;;;;;;4981605;28;20049;-79
2022/05/03 15:27:49;;;;;;;2.53;0.93;;;;;;;;;;4983500;28;20019;-77
2022/05/03 15:30:15;;;;;;;2.33;1.52;;;;;;;;;;4980681;28;20030;-78
2022/05/03 15:32:41;;;;;;;2.65;1.63;;;;;;;;;;4985346;28;20121;-81
2022/05/03 15:35:08;;;;;;;3.42;1.35;;;;;;;;;;4978220;28;20109;-80